sensor_id;sensor_type;location;lat;lon;timestamp;pressure;altitude;pressure_sealevel;temperature;humidity
46412;BME280;32113;42.012;24.870;2022-10-31T00:00:44;99261.38;;;15.68;43.60
46412;BME280;32113;42.012;24.870;2022-10-31T00:03:10;99257.66;;;15.77;43.84
46412;BME280;32113;42.012;24.870;2022-10-31T00:05:35;99256.06;;;15.73;43.79
46412;BME280;32113;42.012;24.870;2022-10-31T00:08:01;99267.59;;;15.61;43.89
46412;BME280;32113;42.012;24.870;2022-10-31T00:10:26;99276.19;;;15.63;43.81
46412;BME280;32113;42.012;24.870;2022-10-31T00:12:52;99274.63;;;15.56;44.08
46412;BME280;32113;42.012;24.870;2022-10-31T00:15:17;99262.84;;;15.45;44.36
46412;BME280;32113;42.012;24.870;2022-10-31T00:17:42;99264.56;;;15.45;44.45
46412;BME280;32113;42.012;24.870;2022-10-31T00:20:09;99275.56;;;15.53;44.38
46412;BME280;32113;42.012;24.870;2022-10-31T00:22:35;99266.09;;;15.54;44.24
46412;BME280;32113;42.012;24.870;2022-10-31T00:25:00;99263.72;;;15.46;44.23
46412;BME280;32113;42.012;24.870;2022-10-31T00:27:25;99262.13;;;15.40;44.70
46412;BME280;32113;42.012;24.870;2022-10-31T00:29:51;99259.06;;;15.26;45.04
46412;BME280;32113;42.012;24.870;2022-10-31T00:32:16;99268.66;;;15.22;45.15
46412;BME280;32113;42.012;24.870;2022-10-31T00:34:41;99253.06;;;15.23;44.91
46412;BME280;32113;42.012;24.870;2022-10-31T00:37:07;99258.22;;;15.25;45.09
46412;BME280;32113;42.012;24.870;2022-10-31T00:39:32;99252.09;;;15.28;45.20
46412;BME280;32113;42.012;24.870;2022-10-31T00:41:58;99246.88;;;15.31;44.91
46412;BME280;32113;42.012;24.870;2022-10-31T00:44:23;99251.03;;;15.36;44.95
46412;BME280;32113;42.012;24.870;2022-10-31T00:46:48;99253.66;;;15.35;44.96
46412;BME280;32113;42.012;24.870;2022-10-31T00:49:14;99257.31;;;15.26;45.33
46412;BME280;32113;42.012;24.870;2022-10-31T00:51:39;99254.41;;;15.05;45.76
46412;BME280;32113;42.012;24.870;2022-10-31T00:54:04;99262.19;;;15.04;45.88
46412;BME280;32113;42.012;24.870;2022-10-31T00:56:30;99258.81;;;15.02;45.97
46412;BME280;32113;42.012;24.870;2022-10-31T00:58:55;99265.63;;;15.04;46.39
46412;BME280;32113;42.012;24.870;2022-10-31T01:01:21;99262.69;;;15.18;45.98
46412;BME280;32113;42.012;24.870;2022-10-31T01:03:46;99261.75;;;15.21;45.82
46412;BME280;32113;42.012;24.870;2022-10-31T01:06:12;99250.41;;;15.27;45.67
46412;BME280;32113;42.012;24.870;2022-10-31T01:08:38;99244.47;;;15.24;45.61
46412;BME280;32113;42.012;24.870;2022-10-31T01:13:29;99248.72;;;15.26;45.69
46412;BME280;32113;42.012;24.870;2022-10-31T01:15:56;99249.94;;;15.12;45.90
46412;BME280;32113;42.012;24.870;2022-10-31T01:18:22;99254.31;;;15.10;45.85
46412;BME280;32113;42.012;24.870;2022-10-31T01:20:56;99249.94;;;15.12;45.85
46412;BME280;32113;42.012;24.870;2022-10-31T01:23:22;99243.91;;;15.11;46.18
46412;BME280;32113;42.012;24.870;2022-10-31T01:25:47;99240.59;;;15.06;46.17
46412;BME280;32113;42.012;24.870;2022-10-31T01:28:13;99239.56;;;15.14;46.22
46412;BME280;32113;42.012;24.870;2022-10-31T01:30:38;99230.88;;;15.16;46.05
46412;BME280;32113;42.012;24.870;2022-10-31T01:33:03;99228.25;;;15.18;46.10
46412;BME280;32113;42.012;24.870;2022-10-31T01:35:29;99235.31;;;15.11;46.30
46412;BME280;32113;42.012;24.870;2022-10-31T01:37:54;99230.72;;;15.22;46.21
46412;BME280;32113;42.012;24.870;2022-10-31T01:40:19;99232.31;;;15.27;46.16
46412;BME280;32113;42.012;24.870;2022-10-31T01:42:45;99225.31;;;15.30;45.83
46412;BME280;32113;42.012;24.870;2022-10-31T01:45:10;99227.91;;;15.30;46.00
46412;BME280;32113;42.012;24.870;2022-10-31T01:47:45;99237.13;;;15.41;45.72
46412;BME280;32113;42.012;24.870;2022-10-31T01:50:41;99230.31;;;15.38;45.78
46412;BME280;32113;42.012;24.870;2022-10-31T01:53:10;99229.03;;;15.53;45.60
46412;BME280;32113;42.012;24.870;2022-10-31T01:55:41;99234.44;;;15.75;45.03
46412;BME280;32113;42.012;24.870;2022-10-31T01:58:12;99225.53;;;15.86;45.16
46412;BME280;32113;42.012;24.870;2022-10-31T02:00:39;99230.44;;;15.97;44.60
46412;BME280;32113;42.012;24.870;2022-10-31T02:03:07;99236.84;;;15.82;44.93
46412;BME280;32113;42.012;24.870;2022-10-31T02:05:33;99228.97;;;15.85;45.17
46412;BME280;32113;42.012;24.870;2022-10-31T02:08:28;99220.66;;;16.05;44.31
46412;BME280;32113;42.012;24.870;2022-10-31T02:10:54;99229.31;;;16.04;44.19
46412;BME280;32113;42.012;24.870;2022-10-31T02:13:21;99221.72;;;15.99;44.29
46412;BME280;32113;42.012;24.870;2022-10-31T02:15:50;99237.47;;;15.90;44.54
46412;BME280;32113;42.012;24.870;2022-10-31T02:18:17;99242.81;;;15.84;44.87
46412;BME280;32113;42.012;24.870;2022-10-31T02:21:01;99233.81;;;15.99;44.57
46412;BME280;32113;42.012;24.870;2022-10-31T02:29:05;99239.22;;;15.89;44.81
46412;BME280;32113;42.012;24.870;2022-10-31T02:34:34;99230.25;;;15.71;45.16
46412;BME280;32113;42.012;24.870;2022-10-31T02:37:31;99217.31;;;15.71;45.37
46412;BME280;32113;42.012;24.870;2022-10-31T02:45:35;99233.00;;;15.97;44.70
46412;BME280;32113;42.012;24.870;2022-10-31T02:48:10;99219.38;;;15.90;44.98
46412;BME280;32113;42.012;24.870;2022-10-31T02:50:41;99227.75;;;15.98;44.57
46412;BME280;32113;42.012;24.870;2022-10-31T02:53:08;99223.69;;;15.89;44.95
46412;BME280;32113;42.012;24.870;2022-10-31T02:58:06;99219.84;;;16.32;44.59
46412;BME280;32113;42.012;24.870;2022-10-31T03:00:41;99217.63;;;16.48;43.75
46412;BME280;32113;42.012;24.870;2022-10-31T03:11:05;99242.50;;;16.80;43.16
46412;BME280;32113;42.012;24.870;2022-10-31T03:13:52;99243.84;;;16.92;43.36
46412;BME280;32113;42.012;24.870;2022-10-31T03:19:08;99242.94;;;16.93;43.01
46412;BME280;32113;42.012;24.870;2022-10-31T03:24:09;99248.66;;;17.03;42.80
46412;BME280;32113;42.012;24.870;2022-10-31T03:26:36;99260.81;;;17.01;42.64
46412;BME280;32113;42.012;24.870;2022-10-31T03:29:06;99268.72;;;16.71;43.27
46412;BME280;32113;42.012;24.870;2022-10-31T03:31:36;99260.41;;;16.60;43.56
46412;BME280;32113;42.012;24.870;2022-10-31T03:34:06;99274.06;;;16.65;43.92
46412;BME280;32113;42.012;24.870;2022-10-31T03:36:34;99274.28;;;16.59;43.67
46412;BME280;32113;42.012;24.870;2022-10-31T03:39:04;99273.38;;;16.60;43.96
46412;BME280;32113;42.012;24.870;2022-10-31T03:41:33;99281.38;;;16.80;43.78
46412;BME280;32113;42.012;24.870;2022-10-31T03:44:07;99285.19;;;16.95;43.15
46412;BME280;32113;42.012;24.870;2022-10-31T03:46:34;99287.50;;;16.78;43.22
46412;BME280;32113;42.012;24.870;2022-10-31T03:49:00;99286.56;;;16.80;43.65
46412;BME280;32113;42.012;24.870;2022-10-31T03:51:38;99291.53;;;16.87;42.93
46412;BME280;32113;42.012;24.870;2022-10-31T03:54:33;99293.00;;;16.67;43.45
46412;BME280;32113;42.012;24.870;2022-10-31T03:57:25;99293.97;;;16.36;44.29
46412;BME280;32113;42.012;24.870;2022-10-31T04:00:03;99278.56;;;16.31;44.25
46412;BME280;32113;42.012;24.870;2022-10-31T04:02:31;99285.41;;;16.34;44.64
46412;BME280;32113;42.012;24.870;2022-10-31T04:04:58;99289.84;;;16.57;44.34
46412;BME280;32113;42.012;24.870;2022-10-31T04:07:30;99287.50;;;16.49;44.19
46412;BME280;32113;42.012;24.870;2022-10-31T04:09:58;99277.41;;;16.41;44.41
46412;BME280;32113;42.012;24.870;2022-10-31T04:12:26;99282.63;;;16.40;44.77
46412;BME280;32113;42.012;24.870;2022-10-31T04:14:52;99293.91;;;16.37;44.39
46412;BME280;32113;42.012;24.870;2022-10-31T04:17:21;99294.38;;;16.50;44.54
46412;BME280;32113;42.012;24.870;2022-10-31T04:19:48;99295.59;;;16.38;44.39
46412;BME280;32113;42.012;24.870;2022-10-31T04:22:13;99301.97;;;16.28;44.84
46412;BME280;32113;42.012;24.870;2022-10-31T04:24:39;99312.19;;;16.33;44.83
46412;BME280;32113;42.012;24.870;2022-10-31T04:27:05;99313.56;;;16.45;44.43
46412;BME280;32113;42.012;24.870;2022-10-31T04:29:31;99325.84;;;16.38;44.64
46412;BME280;32113;42.012;24.870;2022-10-31T04:31:56;99326.72;;;16.37;44.88
46412;BME280;32113;42.012;24.870;2022-10-31T04:34:22;99326.81;;;16.34;44.84
46412;BME280;32113;42.012;24.870;2022-10-31T04:36:47;99325.03;;;16.36;44.88
46412;BME280;32113;42.012;24.870;2022-10-31T04:39:12;99326.44;;;16.46;44.88
46412;BME280;32113;42.012;24.870;2022-10-31T04:41:38;99324.28;;;16.32;44.97
46412;BME280;32113;42.012;24.870;2022-10-31T04:44:03;99336.56;;;16.25;45.52
46412;BME280;32113;42.012;24.870;2022-10-31T04:46:28;99333.22;;;16.22;45.02
46412;BME280;32113;42.012;24.870;2022-10-31T04:48:54;99323.13;;;16.12;45.48
46412;BME280;32113;42.012;24.870;2022-10-31T04:51:19;99331.41;;;16.24;45.63
46412;BME280;32113;42.012;24.870;2022-10-31T04:53:45;99332.59;;;16.13;45.77
46412;BME280;32113;42.012;24.870;2022-10-31T04:56:10;99331.13;;;16.05;45.89
46412;BME280;32113;42.012;24.870;2022-10-31T04:58:35;99335.16;;;16.13;45.65
46412;BME280;32113;42.012;24.870;2022-10-31T05:01:01;99337.41;;;15.94;46.18
46412;BME280;32113;42.012;24.870;2022-10-31T05:03:26;99340.66;;;16.02;46.07
46412;BME280;32113;42.012;24.870;2022-10-31T05:05:51;99345.59;;;16.10;46.01
46412;BME280;32113;42.012;24.870;2022-10-31T05:08:17;99351.81;;;16.05;45.81
46412;BME280;32113;42.012;24.870;2022-10-31T05:10:42;99354.78;;;15.89;46.55
46412;BME280;32113;42.012;24.870;2022-10-31T05:13:08;99357.50;;;15.84;46.89
46412;BME280;32113;42.012;24.870;2022-10-31T05:15:34;99363.00;;;16.05;46.22
46412;BME280;32113;42.012;24.870;2022-10-31T05:17:59;99374.94;;;16.11;46.30
46412;BME280;32113;42.012;24.870;2022-10-31T05:20:27;99374.75;;;16.17;45.97
46412;BME280;32113;42.012;24.870;2022-10-31T05:22:54;99380.19;;;16.08;46.55
46412;BME280;32113;42.012;24.870;2022-10-31T05:25:22;99375.66;;;16.16;46.46
46412;BME280;32113;42.012;24.870;2022-10-31T05:27:49;99381.47;;;16.24;46.07
46412;BME280;32113;42.012;24.870;2022-10-31T05:30:18;99383.13;;;16.27;46.04
46412;BME280;32113;42.012;24.870;2022-10-31T05:32:45;99379.56;;;16.31;46.04
46412;BME280;32113;42.012;24.870;2022-10-31T05:35:14;99384.72;;;16.31;45.73
46412;BME280;32113;42.012;24.870;2022-10-31T05:37:40;99386.81;;;16.18;46.21
46412;BME280;32113;42.012;24.870;2022-10-31T05:40:07;99386.38;;;16.34;46.08
46412;BME280;32113;42.012;24.870;2022-10-31T05:42:33;99389.25;;;16.53;45.67
46412;BME280;32113;42.012;24.870;2022-10-31T05:44:59;99393.97;;;16.40;45.71
46412;BME280;32113;42.012;24.870;2022-10-31T05:47:24;99393.56;;;16.54;45.86
46412;BME280;32113;42.012;24.870;2022-10-31T05:49:50;99390.59;;;16.38;45.71
46412;BME280;32113;42.012;24.870;2022-10-31T05:52:16;99387.75;;;16.46;45.87
46412;BME280;32113;42.012;24.870;2022-10-31T05:54:41;99393.88;;;16.43;46.07
46412;BME280;32113;42.012;24.870;2022-10-31T05:57:07;99378.22;;;16.46;46.06
46412;BME280;32113;42.012;24.870;2022-10-31T05:59:32;99389.84;;;16.63;45.61
46412;BME280;32113;42.012;24.870;2022-10-31T06:01:58;99402.75;;;16.64;45.55
46412;BME280;32113;42.012;24.870;2022-10-31T06:04:23;99401.59;;;16.75;45.66
46412;BME280;32113;42.012;24.870;2022-10-31T06:06:48;99404.75;;;16.85;45.30
46412;BME280;32113;42.012;24.870;2022-10-31T06:09:14;99415.41;;;16.75;45.45
46412;BME280;32113;42.012;24.870;2022-10-31T06:11:39;99411.66;;;16.84;45.37
46412;BME280;32113;42.012;24.870;2022-10-31T06:14:05;99422.53;;;16.95;45.26
46412;BME280;32113;42.012;24.870;2022-10-31T06:16:31;99430.72;;;17.12;44.96
46412;BME280;32113;42.012;24.870;2022-10-31T06:18:56;99436.16;;;17.04;44.66
46412;BME280;32113;42.012;24.870;2022-10-31T06:21:22;99436.44;;;16.93;45.22
46412;BME280;32113;42.012;24.870;2022-10-31T06:23:47;99438.69;;;17.05;44.95
46412;BME280;32113;42.012;24.870;2022-10-31T06:26:12;99434.50;;;17.00;45.17
46412;BME280;32113;42.012;24.870;2022-10-31T06:28:38;99430.72;;;17.12;45.11
46412;BME280;32113;42.012;24.870;2022-10-31T06:31:03;99436.72;;;17.14;44.94
46412;BME280;32113;42.012;24.870;2022-10-31T06:33:29;99446.53;;;17.04;45.39
46412;BME280;32113;42.012;24.870;2022-10-31T06:35:54;99436.75;;;17.12;45.33
46412;BME280;32113;42.012;24.870;2022-10-31T06:38:20;99439.97;;;17.20;44.95
46412;BME280;32113;42.012;24.870;2022-10-31T06:40:45;99440.31;;;17.10;45.32
46412;BME280;32113;42.012;24.870;2022-10-31T06:43:10;99439.28;;;17.15;45.31
46412;BME280;32113;42.012;24.870;2022-10-31T06:45:37;99446.00;;;17.21;44.88
46412;BME280;32113;42.012;24.870;2022-10-31T06:48:02;99447.50;;;17.28;45.04
46412;BME280;32113;42.012;24.870;2022-10-31T06:50:28;99444.88;;;17.30;44.80
46412;BME280;32113;42.012;24.870;2022-10-31T06:52:56;99450.38;;;17.48;44.71
46412;BME280;32113;42.012;24.870;2022-10-31T06:55:23;99451.81;;;17.56;44.67
46412;BME280;32113;42.012;24.870;2022-10-31T06:57:53;99444.50;;;17.68;44.37
46412;BME280;32113;42.012;24.870;2022-10-31T07:00:19;99443.81;;;17.88;43.85
46412;BME280;32113;42.012;24.870;2022-10-31T07:03:02;99438.84;;;17.82;43.71
46412;BME280;32113;42.012;24.870;2022-10-31T07:05:29;99440.81;;;17.75;44.19
46412;BME280;32113;42.012;24.870;2022-10-31T07:08:06;99432.34;;;17.70;44.12
46412;BME280;32113;42.012;24.870;2022-10-31T07:10:34;99442.50;;;17.76;43.93
46412;BME280;32113;42.012;24.870;2022-10-31T07:13:01;99434.50;;;17.82;43.88
46412;BME280;32113;42.012;24.870;2022-10-31T07:15:28;99432.22;;;17.73;43.92
46412;BME280;32113;42.012;24.870;2022-10-31T07:17:53;99433.28;;;17.67;44.03
46412;BME280;32113;42.012;24.870;2022-10-31T07:20:19;99440.16;;;17.68;44.09
46412;BME280;32113;42.012;24.870;2022-10-31T07:22:45;99435.81;;;17.94;43.73
46412;BME280;32113;42.012;24.870;2022-10-31T07:25:10;99433.22;;;18.20;43.02
46412;BME280;32113;42.012;24.870;2022-10-31T07:27:41;99435.41;;;18.32;42.68
46412;BME280;32113;42.012;24.870;2022-10-31T07:30:08;99436.97;;;18.36;42.75
46412;BME280;32113;42.012;24.870;2022-10-31T07:32:41;99432.22;;;18.48;42.60
46412;BME280;32113;42.012;24.870;2022-10-31T07:35:12;99437.34;;;18.73;42.53
46412;BME280;32113;42.012;24.870;2022-10-31T07:37:38;99440.09;;;18.93;41.96
46412;BME280;32113;42.012;24.870;2022-10-31T07:40:05;99442.47;;;18.99;41.69
46412;BME280;32113;42.012;24.870;2022-10-31T07:42:39;99446.00;;;19.20;41.63
46412;BME280;32113;42.012;24.870;2022-10-31T07:45:07;99447.84;;;19.39;40.69
46412;BME280;32113;42.012;24.870;2022-10-31T07:47:39;99447.41;;;19.50;41.09
46412;BME280;32113;42.012;24.870;2022-10-31T07:50:05;99452.50;;;19.53;40.79
46412;BME280;32113;42.012;24.870;2022-10-31T07:52:31;99452.56;;;19.72;40.91
46412;BME280;32113;42.012;24.870;2022-10-31T07:54:57;99444.84;;;19.91;40.31
46412;BME280;32113;42.012;24.870;2022-10-31T07:57:22;99458.13;;;20.06;40.68
46412;BME280;32113;42.012;24.870;2022-10-31T07:59:48;99451.34;;;20.22;39.72
46412;BME280;32113;42.012;24.870;2022-10-31T08:02:13;99446.97;;;20.23;39.77
46412;BME280;32113;42.012;24.870;2022-10-31T08:04:38;99434.97;;;20.40;40.05
46412;BME280;32113;42.012;24.870;2022-10-31T08:07:04;99438.44;;;20.59;39.47
46412;BME280;32113;42.012;24.870;2022-10-31T08:09:29;99437.09;;;20.70;38.92
46412;BME280;32113;42.012;24.870;2022-10-31T08:11:54;99431.03;;;20.89;39.51
46412;BME280;32113;42.012;24.870;2022-10-31T08:14:20;99437.19;;;21.05;38.73
46412;BME280;32113;42.012;24.870;2022-10-31T08:16:46;99440.69;;;21.23;39.07
46412;BME280;32113;42.012;24.870;2022-10-31T08:19:11;99444.03;;;21.45;38.95
46412;BME280;32113;42.012;24.870;2022-10-31T08:21:37;99439.31;;;21.69;37.53
46412;BME280;32113;42.012;24.870;2022-10-31T08:24:02;99432.28;;;21.89;37.87
46412;BME280;32113;42.012;24.870;2022-10-31T08:26:28;99441.47;;;22.14;36.58
46412;BME280;32113;42.012;24.870;2022-10-31T08:28:53;99445.78;;;22.31;36.15
46412;BME280;32113;42.012;24.870;2022-10-31T08:31:20;99431.63;;;22.69;36.04
46412;BME280;32113;42.012;24.870;2022-10-31T08:33:46;99427.88;;;23.05;35.40
46412;BME280;32113;42.012;24.870;2022-10-31T08:36:11;99439.44;;;23.48;34.86
46412;BME280;32113;42.012;24.870;2022-10-31T08:38:37;99434.31;;;23.77;34.06
46412;BME280;32113;42.012;24.870;2022-10-31T08:41:02;99432.00;;;24.16;33.84
46412;BME280;32113;42.012;24.870;2022-10-31T08:43:27;99426.41;;;24.64;32.32
46412;BME280;32113;42.012;24.870;2022-10-31T08:45:53;99428.81;;;24.97;31.42
46412;BME280;32113;42.012;24.870;2022-10-31T08:48:20;99431.31;;;25.26;31.24
46412;BME280;32113;42.012;24.870;2022-10-31T08:50:46;99428.16;;;25.61;32.04
46412;BME280;32113;42.012;24.870;2022-10-31T08:53:15;99429.44;;;25.94;29.75
46412;BME280;32113;42.012;24.870;2022-10-31T08:55:41;99439.19;;;26.31;30.75
46412;BME280;32113;42.012;24.870;2022-10-31T08:58:10;99433.25;;;26.54;33.34
46412;BME280;32113;42.012;24.870;2022-10-31T09:00:36;99431.66;;;26.64;30.93
46412;BME280;32113;42.012;24.870;2022-10-31T09:03:09;99437.38;;;26.45;29.55
46412;BME280;32113;42.012;24.870;2022-10-31T09:05:35;99445.91;;;26.22;29.74
46412;BME280;32113;42.012;24.870;2022-10-31T09:08:02;99440.91;;;25.93;31.02
46412;BME280;32113;42.012;24.870;2022-10-31T09:10:29;99440.78;;;25.69;30.40
46412;BME280;32113;42.012;24.870;2022-10-31T09:12:59;99452.22;;;25.40;31.04
46412;BME280;32113;42.012;24.870;2022-10-31T09:15:26;99445.66;;;25.20;31.05
46412;BME280;32113;42.012;24.870;2022-10-31T09:18:04;99446.03;;;25.01;32.18
46412;BME280;32113;42.012;24.870;2022-10-31T09:20:34;99450.38;;;24.87;31.63
46412;BME280;32113;42.012;24.870;2022-10-31T09:23:06;99449.84;;;24.67;32.29
46412;BME280;32113;42.012;24.870;2022-10-31T09:25:33;99447.38;;;24.79;33.45
46412;BME280;32113;42.012;24.870;2022-10-31T09:28:00;99446.34;;;24.82;32.54
46412;BME280;32113;42.012;24.870;2022-10-31T09:30:28;99447.91;;;24.99;32.44
46412;BME280;32113;42.012;24.870;2022-10-31T09:33:05;99438.03;;;25.30;31.46
46412;BME280;32113;42.012;24.870;2022-10-31T09:35:31;99436.97;;;25.60;31.31
46412;BME280;32113;42.012;24.870;2022-10-31T09:38:00;99433.75;;;25.82;32.74
46412;BME280;32113;42.012;24.870;2022-10-31T09:41:07;99439.50;;;26.14;30.89
46412;BME280;32113;42.012;24.870;2022-10-31T09:44:22;99423.81;;;26.38;29.88
46412;BME280;32113;42.012;24.870;2022-10-31T09:47:40;99431.41;;;26.67;29.87
46412;BME280;32113;42.012;24.870;2022-10-31T09:53:12;99429.56;;;27.18;30.58
46412;BME280;32113;42.012;24.870;2022-10-31T09:55:44;99427.19;;;27.26;27.92
46412;BME280;32113;42.012;24.870;2022-10-31T09:58:19;99428.41;;;27.34;27.49
46412;BME280;32113;42.012;24.870;2022-10-31T10:00:48;99423.88;;;27.47;27.51
46412;BME280;32113;42.012;24.870;2022-10-31T10:03:30;99419.09;;;27.52;27.26
46412;BME280;32113;42.012;24.870;2022-10-31T10:05:59;99416.84;;;27.59;27.21
46412;BME280;32113;42.012;24.870;2022-10-31T10:08:30;99405.19;;;27.75;27.13
46412;BME280;32113;42.012;24.870;2022-10-31T10:17:04;99409.38;;;27.89;26.46
46412;BME280;32113;42.012;24.870;2022-10-31T10:20:04;99414.28;;;27.82;26.93
46412;BME280;32113;42.012;24.870;2022-10-31T10:22:47;99417.03;;;27.80;26.85
46412;BME280;32113;42.012;24.870;2022-10-31T10:25:22;99394.97;;;27.81;26.58
46412;BME280;32113;42.012;24.870;2022-10-31T10:30:35;99403.06;;;27.55;26.65
46412;BME280;32113;42.012;24.870;2022-10-31T10:33:10;99399.69;;;27.42;26.93
46412;BME280;32113;42.012;24.870;2022-10-31T10:35:48;99393.66;;;27.28;27.47
46412;BME280;32113;42.012;24.870;2022-10-31T10:40:39;99390.16;;;27.17;27.88
46412;BME280;32113;42.012;24.870;2022-10-31T10:51:45;99389.22;;;27.65;26.83
46412;BME280;32113;42.012;24.870;2022-10-31T10:59:45;99383.56;;;27.58;26.12
46412;BME280;32113;42.012;24.870;2022-10-31T11:02:24;99381.31;;;27.65;26.46
46412;BME280;32113;42.012;24.870;2022-10-31T11:04:58;99384.44;;;27.70;26.79
46412;BME280;32113;42.012;24.870;2022-10-31T11:07:25;99379.97;;;27.59;26.67
46412;BME280;32113;42.012;24.870;2022-10-31T11:09:51;99376.06;;;27.65;26.86
46412;BME280;32113;42.012;24.870;2022-10-31T11:12:30;99373.00;;;27.58;26.56
46412;BME280;32113;42.012;24.870;2022-10-31T11:14:59;99378.69;;;27.65;26.95
46412;BME280;32113;42.012;24.870;2022-10-31T11:17:34;99368.84;;;27.67;26.91
46412;BME280;32113;42.012;24.870;2022-10-31T11:22:26;99373.78;;;27.72;26.91
46412;BME280;32113;42.012;24.870;2022-10-31T11:24:52;99365.50;;;27.76;25.98
46412;BME280;32113;42.012;24.870;2022-10-31T11:27:23;99363.59;;;27.67;25.91
46412;BME280;32113;42.012;24.870;2022-10-31T11:29:49;99363.72;;;27.65;26.15
46412;BME280;32113;42.012;24.870;2022-10-31T11:32:26;99358.19;;;27.68;26.30
46412;BME280;32113;42.012;24.870;2022-10-31T11:34:58;99358.78;;;27.61;26.06
46412;BME280;32113;42.012;24.870;2022-10-31T11:37:27;99353.56;;;27.36;26.30
46412;BME280;32113;42.012;24.870;2022-10-31T11:40:02;99347.47;;;27.36;26.52
46412;BME280;32113;42.012;24.870;2022-10-31T11:42:36;99348.56;;;27.45;26.82
46412;BME280;32113;42.012;24.870;2022-10-31T11:45:14;99352.84;;;27.34;26.53
46412;BME280;32113;42.012;24.870;2022-10-31T11:47:42;99351.78;;;27.25;26.75
46412;BME280;32113;42.012;24.870;2022-10-31T11:50:11;99351.31;;;27.32;26.94
46412;BME280;32113;42.012;24.870;2022-10-31T11:52:43;99354.78;;;27.32;26.95
46412;BME280;32113;42.012;24.870;2022-10-31T11:57:48;99346.25;;;27.28;27.06
46412;BME280;32113;42.012;24.870;2022-10-31T12:02:46;99336.56;;;27.29;27.30
46412;BME280;32113;42.012;24.870;2022-10-31T12:05:23;99343.13;;;27.23;26.55
46412;BME280;32113;42.012;24.870;2022-10-31T12:07:50;99338.47;;;26.91;27.08
46412;BME280;32113;42.012;24.870;2022-10-31T12:10:19;99335.41;;;26.97;27.41
46412;BME280;32113;42.012;24.870;2022-10-31T12:20:37;99343.78;;;27.38;26.45
46412;BME280;32113;42.012;24.870;2022-10-31T12:26:14;99342.69;;;27.52;26.49
46412;BME280;32113;42.012;24.870;2022-10-31T12:31:30;99347.91;;;27.65;26.20
46412;BME280;32113;42.012;24.870;2022-10-31T12:34:13;99348.72;;;27.66;26.01
46412;BME280;32113;42.012;24.870;2022-10-31T12:39:44;99348.59;;;27.56;26.27
46412;BME280;32113;42.012;24.870;2022-10-31T12:42:42;99343.06;;;27.48;26.96
46412;BME280;32113;42.012;24.870;2022-10-31T12:45:33;99344.25;;;27.44;26.67
46412;BME280;32113;42.012;24.870;2022-10-31T12:48:10;99335.97;;;27.37;26.53
46412;BME280;32113;42.012;24.870;2022-10-31T12:54:25;99338.34;;;27.17;27.19
46412;BME280;32113;42.012;24.870;2022-10-31T12:59:18;99344.09;;;27.22;27.17
46412;BME280;32113;42.012;24.870;2022-10-31T13:04:41;99333.09;;;27.28;27.02
46412;BME280;32113;42.012;24.870;2022-10-31T13:07:15;99334.28;;;27.24;26.67
46412;BME280;32113;42.012;24.870;2022-10-31T13:09:53;99338.09;;;27.20;27.59
46412;BME280;32113;42.012;24.870;2022-10-31T13:12:20;99336.66;;;27.16;27.45
46412;BME280;32113;42.012;24.870;2022-10-31T13:14:56;99332.72;;;27.22;26.86
46412;BME280;32113;42.012;24.870;2022-10-31T13:17:33;99335.22;;;27.23;27.02
46412;BME280;32113;42.012;24.870;2022-10-31T13:20:30;99323.50;;;27.27;26.68
46412;BME280;32113;42.012;24.870;2022-10-31T13:23:05;99332.97;;;27.30;26.88
46412;BME280;32113;42.012;24.870;2022-10-31T13:25:40;99327.94;;;27.27;27.01
46412;BME280;32113;42.012;24.870;2022-10-31T13:28:31;99331.31;;;27.29;26.92
46412;BME280;32113;42.012;24.870;2022-10-31T13:31:00;99320.41;;;27.22;26.90
46412;BME280;32113;42.012;24.870;2022-10-31T13:33:34;99327.44;;;27.22;27.32
46412;BME280;32113;42.012;24.870;2022-10-31T13:39:09;99324.00;;;27.21;27.18
46412;BME280;32113;42.012;24.870;2022-10-31T13:41:43;99327.22;;;27.13;27.61
46412;BME280;32113;42.012;24.870;2022-10-31T13:44:15;99323.69;;;27.01;27.62
46412;BME280;32113;42.012;24.870;2022-10-31T13:46:43;99320.28;;;26.88;28.04
46412;BME280;32113;42.012;24.870;2022-10-31T13:51:47;99318.88;;;26.71;28.36
46412;BME280;32113;42.012;24.870;2022-10-31T13:54:23;99319.22;;;26.66;28.98
46412;BME280;32113;42.012;24.870;2022-10-31T13:56:52;99322.06;;;26.63;28.79
46412;BME280;32113;42.012;24.870;2022-10-31T13:59:22;99321.81;;;26.55;28.91
46412;BME280;32113;42.012;24.870;2022-10-31T14:01:51;99325.00;;;26.47;29.11
46412;BME280;32113;42.012;24.870;2022-10-31T14:04:28;99322.81;;;26.41;29.01
46412;BME280;32113;42.012;24.870;2022-10-31T14:07:05;99325.56;;;26.39;29.67
46412;BME280;32113;42.012;24.870;2022-10-31T14:09:34;99326.97;;;26.32;29.64
46412;BME280;32113;42.012;24.870;2022-10-31T14:12:14;99327.59;;;26.22;30.37
46412;BME280;32113;42.012;24.870;2022-10-31T14:14:54;99328.97;;;26.15;29.52
46412;BME280;32113;42.012;24.870;2022-10-31T14:17:26;99329.41;;;26.09;29.53
46412;BME280;32113;42.012;24.870;2022-10-31T14:22:41;99332.06;;;25.96;32.22
46412;BME280;32113;42.012;24.870;2022-10-31T14:27:50;99341.31;;;25.89;31.93
46412;BME280;32113;42.012;24.870;2022-10-31T14:30:20;99336.50;;;25.82;32.52
46412;BME280;32113;42.012;24.870;2022-10-31T14:32:57;99341.97;;;25.79;32.05
46412;BME280;32113;42.012;24.870;2022-10-31T14:35:51;99342.41;;;25.73;32.28
46412;BME280;32113;42.012;24.870;2022-10-31T14:44:08;99344.59;;;25.53;33.67
46412;BME280;32113;42.012;24.870;2022-10-31T14:46:49;99343.22;;;25.48;33.15
46412;BME280;32113;42.012;24.870;2022-10-31T14:51:54;99346.75;;;25.33;34.27
46412;BME280;32113;42.012;24.870;2022-10-31T14:54:30;99349.09;;;25.25;33.76
46412;BME280;32113;42.012;24.870;2022-10-31T14:57:04;99343.50;;;25.17;33.55